createdAt,value
2018-03-31T00:00:02.870Z,6.6
2018-03-31T00:05:03.013Z,6.6
2018-03-31T00:10:02.686Z,6.6
2018-03-31T00:15:03.272Z,6.6
2018-03-31T00:20:02.823Z,6.6
2018-03-31T00:25:02.449Z,6.5
2018-03-31T00:30:03.027Z,6.5
2018-03-31T00:35:02.594Z,6.5
2018-03-31T00:40:03.094Z,6.5
2018-03-31T00:45:02.584Z,6.5
2018-03-31T00:50:03.196Z,6.4
2018-03-31T00:55:02.745Z,6.1
2018-03-31T01:00:03.339Z,6.1
2018-03-31T01:05:02.793Z,6.1
2018-03-31T01:10:02.362Z,6.0
2018-03-31T01:15:02.864Z,5.9
2018-03-31T01:20:03.364Z,5.9
2018-03-31T01:25:02.899Z,5.5
2018-03-31T01:30:02.487Z,5.5
2018-03-31T01:35:03.082Z,5.4
2018-03-31T01:40:02.698Z,5.4
2018-03-31T01:45:03.280Z,5.3
2018-03-31T01:50:02.822Z,5.3
2018-03-31T01:55:03.366Z,5.0
2018-03-31T02:00:02.909Z,5.0
2018-03-31T02:05:02.489Z,5.0
2018-03-31T02:10:03.027Z,5.0
2018-03-31T02:15:02.734Z,5.0
2018-03-31T02:20:02.455Z,5.0
2018-03-31T02:25:03.052Z,5.0
2018-03-31T02:30:02.668Z,4.8
2018-03-31T02:35:03.246Z,4.5
2018-03-31T02:40:02.782Z,4.5
2018-03-31T02:45:02.446Z,4.5
2018-03-31T02:50:03.012Z,4.3
2018-03-31T02:55:02.620Z,4.3
2018-03-31T03:00:03.372Z,4.0
2018-03-31T03:05:02.904Z,4.0
2018-03-31T03:10:02.620Z,4.0
2018-03-31T03:15:03.144Z,3.7
2018-03-31T03:20:02.817Z,3.7
2018-03-31T03:25:03.369Z,3.7
2018-03-31T03:30:02.925Z,4.0
2018-03-31T03:35:02.689Z,4.0
2018-03-31T03:40:03.333Z,4.0
2018-03-31T03:45:02.849Z,4.0
2018-03-31T03:50:02.459Z,4.0
2018-03-31T03:55:03.077Z,4.0
2018-03-31T04:00:02.675Z,4.0
2018-03-31T04:05:03.295Z,3.7
2018-03-31T04:10:02.911Z,3.7
2018-03-31T04:15:02.461Z,3.7
2018-03-31T04:20:03.058Z,3.7
2018-03-31T04:25:02.632Z,3.7
2018-03-31T04:30:02.704Z,3.7
2018-03-31T04:35:03.210Z,3.7
2018-03-31T04:40:02.856Z,3.7
2018-03-31T04:45:02.499Z,3.5
2018-03-31T04:50:03.040Z,3.2
2018-03-31T04:55:02.608Z,3.2
2018-03-31T05:00:03.215Z,3.2
2018-03-31T05:05:02.765Z,3.2
2018-03-31T05:10:03.394Z,3.0
2018-03-31T05:15:02.976Z,3.0
2018-03-31T05:20:02.502Z,3.0
2018-03-31T05:25:03.047Z,2.9
2018-03-31T05:30:02.573Z,2.9
2018-03-31T05:35:03.159Z,3.0
2018-03-31T05:40:02.603Z,3.0
2018-03-31T05:45:03.217Z,2.9
2018-03-31T05:50:02.725Z,3.0
2018-03-31T05:55:03.322Z,3.0
2018-03-31T06:00:02.969Z,3.0
2018-03-31T06:05:02.579Z,3.2
2018-03-31T06:10:03.219Z,3.0
2018-03-31T06:15:02.811Z,3.0
2018-03-31T06:20:02.635Z,3.0
2018-03-31T06:25:03.248Z,3.2
2018-03-31T06:30:03.098Z,3.2
2018-03-31T06:35:02.648Z,3.2
2018-03-31T06:40:03.323Z,3.7
2018-03-31T06:45:02.866Z,3.7
2018-03-31T06:50:02.458Z,4.0
2018-03-31T06:55:03.081Z,4.0
2018-03-31T07:00:02.799Z,4.3
2018-03-31T07:05:02.403Z,4.5
2018-03-31T07:10:02.962Z,4.5
2018-03-31T07:15:02.540Z,4.5
2018-03-31T07:20:03.133Z,5.0
2018-03-31T07:25:02.668Z,5.0
2018-03-31T07:30:03.296Z,5.3
2018-03-31T07:35:02.837Z,5.4
2018-03-31T07:40:02.417Z,5.8
2018-03-31T07:45:02.998Z,5.9
2018-03-31T07:50:02.574Z,6.1
2018-03-31T07:55:03.158Z,6.0
2018-03-31T08:00:02.740Z,6.0
2018-03-31T08:05:02.386Z,6.4
2018-03-31T08:10:02.978Z,6.9
2018-03-31T08:15:02.507Z,7.0
2018-03-31T08:20:03.080Z,8.0
2018-03-31T08:25:02.610Z,9.0
2018-03-31T08:30:03.123Z,9.3
2018-03-31T08:35:02.666Z,10.0
2018-03-31T08:40:03.255Z,10.1
2018-03-31T08:45:02.831Z,10.5
2018-03-31T08:50:02.387Z,10.5
2018-03-31T08:55:02.878Z,10.8
2018-03-31T09:00:02.466Z,10.6
2018-03-31T09:05:03.078Z,10.8
2018-03-31T09:10:02.684Z,11.3
2018-03-31T09:15:03.283Z,11.8
2018-03-31T09:20:02.883Z,11.3
2018-03-31T09:25:02.420Z,12.1
2018-03-31T09:30:03.264Z,13.3
2018-03-31T09:35:02.886Z,12.5
2018-03-31T09:40:02.568Z,12.6
2018-03-31T09:45:02.396Z,12.8
2018-03-31T09:50:02.937Z,13.6
2018-03-31T09:55:02.456Z,12.3
2018-03-31T10:00:03.020Z,13.3
2018-03-31T10:05:02.571Z,12.3
2018-03-31T10:10:03.248Z,13.1
2018-03-31T10:15:02.747Z,12.1
2018-03-31T10:20:02.504Z,12.6
2018-03-31T10:25:03.105Z,12.3
2018-03-31T10:30:02.591Z,13.3
2018-03-31T10:35:03.181Z,13.1
2018-03-31T10:40:02.859Z,14.3
2018-03-31T10:45:02.424Z,14.0
2018-03-31T10:50:03.011Z,14.0
2018-03-31T10:55:02.578Z,14.3
2018-03-31T11:00:03.087Z,13.8
2018-03-31T11:05:02.632Z,15.5
2018-03-31T11:10:03.195Z,14.5
2018-03-31T11:15:02.801Z,15.1
2018-03-31T11:20:02.447Z,15.1
2018-03-31T11:25:03.006Z,14.8
2018-03-31T11:30:02.570Z,14.1
2018-03-31T11:35:03.121Z,14.3
2018-03-31T11:40:02.773Z,16.0
2018-03-31T11:45:03.390Z,14.6
2018-03-31T11:50:03.013Z,14.3
2018-03-31T11:55:02.589Z,13.6
2018-03-31T12:00:03.144Z,15.1
2018-03-31T12:05:02.655Z,14.6
2018-03-31T12:10:03.274Z,14.3
2018-03-31T12:15:02.803Z,14.3
2018-03-31T12:20:02.384Z,15.1
2018-03-31T12:25:02.998Z,14.0
2018-03-31T12:30:02.541Z,14.3
2018-03-31T12:35:03.110Z,13.6
2018-03-31T12:40:02.792Z,12.8
2018-03-31T12:45:02.400Z,13.1
2018-03-31T12:50:03.038Z,12.6
2018-03-31T12:55:03.017Z,12.8
2018-03-31T13:00:02.668Z,13.1
2018-03-31T13:05:03.194Z,12.6
2018-03-31T13:10:02.890Z,12.6
2018-03-31T13:15:02.441Z,13.1
2018-03-31T13:20:03.086Z,12.8
2018-03-31T13:25:02.629Z,12.6
2018-03-31T13:30:03.323Z,12.5
2018-03-31T13:35:02.918Z,12.1
2018-03-31T13:40:02.782Z,11.8
2018-03-31T13:45:02.416Z,12.0
2018-03-31T13:50:02.997Z,12.0
2018-03-31T13:55:02.808Z,12.1
2018-03-31T14:00:02.409Z,12.3
2018-03-31T14:05:02.991Z,12.0
2018-03-31T14:10:02.697Z,12.1
2018-03-31T14:15:02.540Z,12.1
2018-03-31T14:20:03.081Z,12.5
2018-03-31T14:25:02.728Z,12.6
2018-03-31T14:30:03.378Z,13.1
2018-03-31T14:35:02.978Z,13.6
2018-03-31T14:40:02.657Z,14.1
2018-03-31T14:45:03.234Z,15.3
2018-03-31T14:50:02.787Z,16.0
2018-03-31T14:55:03.358Z,16.6
2018-03-31T15:00:03.190Z,15.8
2018-03-31T15:05:02.747Z,14.0
2018-03-31T15:10:03.377Z,13.6
2018-03-31T15:15:02.898Z,13.3
2018-03-31T15:20:02.527Z,15.5
2018-03-31T15:25:03.131Z,17.0
2018-03-31T15:30:02.728Z,16.7
2018-03-31T15:35:03.340Z,16.2
2018-03-31T15:40:03.033Z,15.3
2018-03-31T15:45:02.930Z,15.1
2018-03-31T15:50:02.541Z,14.1
2018-03-31T15:55:03.094Z,13.3
2018-03-31T16:00:02.690Z,15.5
2018-03-31T16:05:02.400Z,16.6
2018-03-31T16:10:03.076Z,16.2
2018-03-31T16:15:02.641Z,15.0
2018-03-31T16:20:03.294Z,15.3
2018-03-31T16:25:02.896Z,16.2
2018-03-31T16:30:02.664Z,15.8
2018-03-31T16:35:03.258Z,15.5
2018-03-31T16:40:02.804Z,15.8
2018-03-31T16:45:03.382Z,15.8
2018-03-31T16:50:02.958Z,15.1
2018-03-31T16:55:02.554Z,14.8
2018-03-31T17:00:03.105Z,14.6
2018-03-31T17:05:02.710Z,12.8
2018-03-31T17:10:02.379Z,12.1
2018-03-31T17:15:02.888Z,13.5
2018-03-31T17:20:02.574Z,13.8
2018-03-31T17:25:03.115Z,12.8
2018-03-31T17:30:02.605Z,11.6
2018-03-31T17:35:03.335Z,11.3
2018-03-31T17:40:02.924Z,11.0
2018-03-31T17:45:02.527Z,10.8
2018-03-31T17:50:03.059Z,10.5
2018-03-31T17:55:02.540Z,10.3
2018-03-31T18:00:03.148Z,10.1
2018-03-31T18:05:02.680Z,10.1
2018-03-31T18:10:03.278Z,10.1
2018-03-31T18:15:02.815Z,10.1
2018-03-31T18:20:03.391Z,9.8
2018-03-31T18:25:02.848Z,9.6
2018-03-31T18:30:02.542Z,9.6
2018-03-31T18:35:03.128Z,10.0
2018-03-31T18:40:02.803Z,10.0
2018-03-31T18:45:03.386Z,10.0
2018-03-31T18:50:03.095Z,10.1
2018-03-31T18:55:02.672Z,10.1
2018-03-31T19:00:03.237Z,10.1
2018-03-31T19:05:02.785Z,10.0
2018-03-31T19:10:02.394Z,8.8
2018-03-31T19:15:03.080Z,8.1
2018-03-31T19:20:02.756Z,7.9
2018-03-31T19:25:02.445Z,7.1
2018-03-31T19:30:02.902Z,7.0
2018-03-31T19:35:02.437Z,6.9
2018-03-31T19:40:03.035Z,6.9
2018-03-31T19:45:02.619Z,7.0
2018-03-31T19:50:03.183Z,6.9
2018-03-31T19:55:02.693Z,7.0
2018-03-31T20:00:03.358Z,7.0
2018-03-31T20:05:02.891Z,7.0
2018-03-31T20:10:02.528Z,7.0
2018-03-31T20:15:03.137Z,7.1
2018-03-31T20:20:02.832Z,7.0
2018-03-31T20:25:02.400Z,6.4
2018-03-31T20:30:02.959Z,6.0
2018-03-31T20:35:02.582Z,5.9
2018-03-31T20:40:03.242Z,5.8
2018-03-31T20:45:03.224Z,5.8
2018-03-31T20:50:02.913Z,5.8
2018-03-31T20:55:02.498Z,5.8
2018-03-31T21:00:03.032Z,5.8
2018-03-31T21:05:02.678Z,5.9
2018-03-31T21:10:03.374Z,6.0
2018-03-31T21:15:03.014Z,6.0
2018-03-31T21:20:02.641Z,6.0
2018-03-31T21:25:03.252Z,5.9
2018-03-31T21:30:03.183Z,5.9
2018-03-31T21:35:02.828Z,5.9
2018-03-31T21:40:02.472Z,5.5
2018-03-31T21:45:03.004Z,5.8
2018-03-31T21:50:02.626Z,5.5
2018-03-31T21:55:03.241Z,5.5
2018-03-31T22:00:02.797Z,5.4
2018-03-31T22:05:02.500Z,5.4
2018-03-31T22:10:03.101Z,5.5
2018-03-31T22:15:02.630Z,5.5
2018-03-31T22:20:03.228Z,5.5
2018-03-31T22:25:02.853Z,5.8
2018-03-31T22:30:02.399Z,6.0
2018-03-31T22:35:03.026Z,5.9
2018-03-31T22:40:02.780Z,5.9
2018-03-31T22:45:03.380Z,5.9
2018-03-31T22:50:03.060Z,5.9
2018-03-31T22:55:02.658Z,6.0
2018-03-31T23:00:05.462Z,6.0
2018-03-31T23:05:02.417Z,5.9
2018-03-31T23:10:03.020Z,6.0
2018-03-31T23:15:02.553Z,6.0
2018-03-31T23:20:03.167Z,5.9
2018-03-31T23:25:02.708Z,6.1
2018-03-31T23:30:03.260Z,6.0
2018-03-31T23:35:02.780Z,5.9
2018-03-31T23:40:02.388Z,5.9
2018-03-31T23:45:03.027Z,5.9
2018-03-31T23:50:02.645Z,6.0
2018-03-31T23:55:03.240Z,6.0
